createdAt,value
2018-08-23T00:00:04.382Z,63.74
2018-08-23T00:01:04.374Z,63.76
2018-08-23T00:02:04.387Z,63.72
2018-08-23T00:03:04.540Z,63.82
2018-08-23T00:04:04.370Z,63.69
2018-08-23T00:05:04.355Z,63.77
2018-08-23T00:06:04.326Z,63.69
2018-08-23T00:07:04.474Z,63.75
2018-08-23T00:08:04.425Z,63.72
2018-08-23T00:09:04.598Z,63.65
2018-08-23T00:10:04.457Z,63.65
2018-08-23T00:11:04.336Z,63.82
2018-08-23T00:12:04.320Z,63.77
2018-08-23T00:13:04.390Z,63.72
2018-08-23T00:14:04.411Z,63.68
2018-08-23T00:15:04.378Z,63.69
2018-08-23T00:16:04.369Z,63.71
2018-08-23T00:17:04.231Z,63.7
2018-08-23T00:18:04.590Z,63.77
2018-08-23T00:19:04.207Z,63.69
2018-08-23T00:20:04.330Z,63.67
2018-08-23T00:21:04.350Z,63.97
2018-08-23T00:22:04.224Z,63.74
2018-08-23T00:23:04.391Z,63.69
2018-08-23T00:24:04.408Z,63.79
2018-08-23T00:25:04.641Z,63.68
2018-08-23T00:26:04.479Z,63.75
2018-08-23T00:27:04.402Z,63.74
2018-08-23T00:28:04.252Z,63.79
2018-08-23T00:29:04.337Z,63.85
2018-08-23T00:30:04.439Z,63.76
2018-08-23T00:31:04.317Z,63.88
2018-08-23T00:32:04.322Z,63.61
2018-08-23T00:33:04.500Z,63.51
2018-08-23T00:34:04.187Z,63.56
2018-08-23T00:35:04.603Z,63.72
2018-08-23T00:36:04.375Z,63.69
2018-08-23T00:37:04.317Z,63.68
2018-08-23T00:38:04.439Z,63.71
2018-08-23T00:39:04.252Z,63.69
2018-08-23T00:40:04.225Z,63.73
2018-08-23T00:41:04.478Z,63.79
2018-08-23T00:42:04.324Z,63.77
2018-08-23T00:43:04.413Z,63.66
2018-08-23T00:44:04.426Z,63.71
2018-08-23T00:45:04.248Z,63.76
2018-08-23T00:46:04.507Z,63.78
2018-08-23T00:47:04.320Z,63.71
2018-08-23T00:48:04.272Z,63.78
2018-08-23T00:49:04.435Z,63.74
2018-08-23T00:50:04.476Z,63.69
2018-08-23T00:51:04.345Z,63.75
2018-08-23T00:52:04.313Z,63.69
2018-08-23T00:53:04.199Z,63.62
2018-08-23T00:54:04.542Z,63.75
2018-08-23T00:55:04.335Z,63.81
2018-08-23T00:56:04.224Z,63.79
2018-08-23T00:57:04.398Z,63.56
2018-08-23T00:58:04.421Z,63.83
2018-08-23T00:59:04.345Z,63.72
2018-08-23T01:00:04.450Z,63.77
2018-08-23T01:01:04.458Z,63.83
2018-08-23T01:02:04.369Z,63.7
2018-08-23T01:03:04.496Z,63.64
2018-08-23T01:04:04.432Z,63.72
2018-08-23T01:05:04.529Z,63.63
2018-08-23T01:06:04.299Z,63.71
2018-08-23T01:07:04.214Z,63.76
2018-08-23T01:08:04.338Z,63.71
2018-08-23T01:09:04.391Z,63.65
2018-08-23T01:10:04.397Z,63.67
2018-08-23T01:11:04.215Z,63.58
2018-08-23T01:12:04.441Z,63.83
2018-08-23T01:13:04.418Z,63.71
2018-08-23T01:14:04.327Z,63.59
2018-08-23T01:15:04.288Z,63.55
2018-08-23T01:16:04.673Z,63.49
2018-08-23T01:17:05.184Z,63.69
2018-08-23T01:18:04.393Z,63.76
2018-08-23T01:19:04.309Z,63.63
2018-08-23T01:20:04.251Z,63.74
2018-08-23T01:21:04.349Z,63.75
2018-08-23T01:22:04.501Z,63.69
2018-08-23T01:23:04.832Z,63.68
2018-08-23T01:24:04.264Z,63.68
2018-08-23T01:25:04.388Z,63.64
2018-08-23T01:26:04.387Z,63.65
2018-08-23T01:27:04.543Z,63.79
2018-08-23T01:28:04.291Z,63.74
2018-08-23T01:29:04.224Z,63.72
2018-08-23T01:30:04.280Z,63.67
2018-08-23T01:31:04.318Z,63.7
2018-08-23T01:32:04.656Z,63.69
2018-08-23T01:33:04.403Z,63.64
2018-08-23T01:34:04.477Z,63.68
2018-08-23T01:35:04.404Z,63.73
2018-08-23T01:36:04.308Z,63.64
2018-08-23T01:37:04.397Z,63.63
2018-08-23T01:38:04.438Z,63.68
2018-08-23T01:39:04.384Z,63.86
2018-08-23T01:40:04.388Z,63.76
2018-08-23T01:41:04.420Z,63.8
2018-08-23T01:42:04.388Z,63.67
2018-08-23T01:43:04.690Z,63.79
2018-08-23T01:44:04.427Z,63.65
2018-08-23T01:45:04.500Z,63.6
2018-08-23T01:46:04.331Z,63.74
2018-08-23T01:47:04.431Z,63.72
2018-08-23T01:48:04.419Z,63.69
2018-08-23T01:49:04.419Z,63.73
2018-08-23T01:50:04.368Z,63.58
2018-08-23T01:51:04.519Z,63.66
2018-08-23T01:52:04.194Z,63.77
2018-08-23T01:53:04.266Z,63.74
2018-08-23T01:54:04.338Z,63.77
2018-08-23T01:55:04.345Z,63.69
2018-08-23T01:56:04.503Z,63.7
2018-08-23T01:57:04.269Z,63.73
2018-08-23T01:58:04.426Z,63.69
2018-08-23T01:59:04.419Z,63.62
2018-08-23T02:00:04.467Z,63.7
2018-08-23T02:01:04.320Z,63.65
2018-08-23T02:02:04.285Z,63.63
2018-08-23T02:03:04.271Z,63.71
2018-08-23T02:04:04.477Z,63.71
2018-08-23T02:05:04.283Z,63.64
2018-08-23T02:06:04.276Z,63.65
2018-08-23T02:07:04.613Z,63.74
2018-08-23T02:08:04.294Z,63.7
2018-08-23T02:09:04.258Z,63.71
2018-08-23T02:10:04.387Z,63.71
2018-08-23T02:11:04.265Z,63.74
2018-08-23T02:12:04.377Z,63.62
2018-08-23T02:13:04.263Z,63.7
2018-08-23T02:14:04.260Z,63.66
2018-08-23T02:15:04.146Z,63.7
2018-08-23T02:16:04.313Z,63.72
2018-08-23T02:17:04.423Z,63.7
2018-08-23T02:18:04.238Z,63.64
2018-08-23T02:19:04.296Z,63.64
2018-08-23T02:20:04.344Z,63.72
2018-08-23T02:21:04.382Z,63.7
2018-08-23T02:22:04.276Z,63.71
2018-08-23T02:23:04.355Z,63.7
2018-08-23T02:24:04.421Z,63.6
2018-08-23T02:25:04.299Z,63.74
2018-08-23T02:26:04.170Z,63.69
2018-08-23T02:27:04.506Z,63.66
2018-08-23T02:28:04.277Z,63.66
2018-08-23T02:29:18.870Z,63.66
2018-08-23T02:30:04.281Z,63.68
2018-08-23T02:31:04.294Z,63.72
2018-08-23T02:32:04.446Z,63.66
2018-08-23T02:33:04.304Z,63.75
2018-08-23T02:34:04.361Z,63.7
2018-08-23T02:35:04.413Z,63.68
2018-08-23T02:36:04.715Z,63.73
2018-08-23T02:37:04.235Z,63.67
2018-08-23T02:38:04.435Z,63.62
2018-08-23T02:39:04.386Z,63.61
2018-08-23T02:40:04.566Z,63.63
2018-08-23T02:41:04.305Z,63.7
2018-08-23T02:42:04.321Z,63.67
2018-08-23T02:43:04.240Z,63.64
2018-08-23T02:44:04.339Z,63.67
2018-08-23T02:45:04.153Z,63.71
2018-08-23T02:46:04.472Z,63.66
2018-08-23T02:47:04.335Z,63.68
2018-08-23T02:48:04.194Z,63.68
2018-08-23T02:49:04.308Z,63.71
2018-08-23T02:50:04.251Z,63.63
2018-08-23T02:51:04.235Z,63.68
2018-08-23T02:52:04.685Z,63.62
2018-08-23T02:53:04.374Z,63.71
2018-08-23T02:54:04.245Z,63.68
2018-08-23T02:55:04.449Z,63.63
2018-08-23T02:56:04.411Z,63.71
2018-08-23T02:57:04.426Z,63.76
2018-08-23T02:58:04.271Z,63.64
2018-08-23T02:59:04.247Z,63.63
2018-08-23T03:00:04.287Z,63.64
2018-08-23T03:01:04.311Z,63.74
2018-08-23T03:02:04.747Z,63.71
2018-08-23T03:03:04.458Z,63.7
2018-08-23T03:04:04.199Z,63.61
2018-08-23T03:05:04.373Z,63.68
2018-08-23T03:06:04.172Z,63.64
2018-08-23T03:07:04.331Z,63.68
2018-08-23T03:08:04.285Z,63.65
2018-08-23T03:09:04.289Z,63.71
2018-08-23T03:10:04.300Z,63.73
2018-08-23T03:11:04.229Z,63.68
2018-08-23T03:12:04.243Z,63.65
2018-08-23T03:13:04.263Z,63.72
2018-08-23T03:14:04.606Z,63.65
2018-08-23T03:15:04.402Z,63.7
2018-08-23T03:16:04.241Z,63.73
2018-08-23T03:17:04.206Z,63.74
2018-08-23T03:18:04.498Z,63.56
2018-08-23T03:19:04.402Z,63.59
2018-08-23T03:20:04.457Z,63.7
2018-08-23T03:21:04.653Z,63.63
2018-08-23T03:22:04.449Z,63.69
2018-08-23T03:23:04.207Z,63.67
2018-08-23T03:24:04.300Z,63.65
2018-08-23T03:25:04.382Z,63.67
2018-08-23T03:26:04.317Z,63.61
2018-08-23T03:27:04.380Z,63.71
2018-08-23T03:28:04.248Z,63.68
2018-08-23T03:29:04.618Z,63.66
2018-08-23T03:30:04.629Z,63.68
2018-08-23T03:31:04.489Z,63.67
2018-08-23T03:32:04.270Z,63.69
2018-08-23T03:33:04.274Z,63.69
2018-08-23T03:34:04.212Z,63.73
2018-08-23T03:35:04.417Z,63.61
2018-08-23T03:36:04.362Z,63.67
2018-08-23T03:37:04.191Z,63.66
2018-08-23T03:38:04.391Z,63.77
2018-08-23T03:39:04.256Z,63.66
2018-08-23T03:40:04.323Z,63.65
2018-08-23T03:41:04.373Z,63.64
2018-08-23T03:42:04.402Z,63.74
2018-08-23T03:43:04.239Z,63.6
2018-08-23T03:44:04.258Z,63.61
2018-08-23T03:45:04.250Z,63.68
2018-08-23T03:46:04.408Z,63.62
2018-08-23T03:47:04.332Z,63.65
2018-08-23T03:48:04.205Z,63.66
2018-08-23T03:49:04.299Z,63.68
2018-08-23T03:50:04.438Z,63.57
2018-08-23T03:51:04.311Z,63.74
2018-08-23T03:52:04.520Z,63.61
2018-08-23T03:53:04.267Z,63.68
2018-08-23T03:54:04.277Z,63.64
2018-08-23T03:55:04.330Z,63.62
2018-08-23T03:56:04.162Z,63.52
2018-08-23T03:57:04.365Z,63.73
2018-08-23T03:58:04.154Z,63.67
2018-08-23T03:59:04.297Z,63.66
2018-08-23T04:00:04.327Z,63.69
2018-08-23T04:01:04.436Z,63.61
2018-08-23T04:02:04.219Z,63.62
2018-08-23T04:03:04.381Z,63.68
2018-08-23T04:04:04.286Z,63.65
2018-08-23T04:05:04.679Z,63.61
2018-08-23T04:06:04.288Z,63.65
2018-08-23T04:07:04.106Z,63.67
2018-08-23T04:08:04.335Z,63.6
2018-08-23T04:09:04.252Z,63.73
2018-08-23T04:10:04.452Z,63.66
2018-08-23T04:11:04.401Z,63.65
2018-08-23T04:12:04.457Z,63.62
2018-08-23T04:13:04.255Z,63.64
2018-08-23T04:14:04.336Z,63.61
2018-08-23T04:15:04.188Z,63.67
2018-08-23T04:16:04.650Z,63.66
2018-08-23T04:17:04.345Z,63.69
2018-08-23T04:18:04.682Z,63.74
2018-08-23T04:19:04.224Z,63.64
2018-08-23T04:20:04.552Z,63.67
2018-08-23T04:21:04.350Z,63.57
2018-08-23T04:22:04.480Z,63.66
2018-08-23T04:23:04.226Z,63.73
2018-08-23T04:24:04.297Z,63.6
2018-08-23T04:25:04.399Z,63.6
2018-08-23T04:26:04.372Z,63.61
2018-08-23T04:27:04.138Z,63.73
2018-08-23T04:28:04.254Z,63.68
2018-08-23T04:29:04.429Z,63.62
2018-08-23T04:30:04.350Z,63.65
2018-08-23T04:31:04.195Z,63.68
2018-08-23T04:32:04.254Z,63.7
2018-08-23T04:33:04.440Z,63.6
2018-08-23T04:34:04.400Z,63.68
2018-08-23T04:35:04.461Z,63.67
2018-08-23T04:36:04.339Z,63.65
2018-08-23T04:37:04.372Z,63.62
2018-08-23T04:38:04.277Z,63.68
2018-08-23T04:39:04.314Z,63.6
2018-08-23T04:40:04.434Z,63.72
2018-08-23T04:41:04.289Z,63.61
2018-08-23T04:42:04.280Z,63.67
2018-08-23T04:43:04.372Z,63.64
2018-08-23T04:44:04.196Z,63.67
2018-08-23T04:45:04.351Z,63.68
2018-08-23T04:46:04.278Z,63.61
2018-08-23T04:47:04.395Z,63.71
2018-08-23T04:48:04.293Z,63.62
2018-08-23T04:49:04.187Z,63.65
2018-08-23T04:50:04.195Z,63.62
2018-08-23T04:51:04.222Z,63.68
2018-08-23T04:52:04.584Z,63.67
2018-08-23T04:53:04.394Z,63.64
2018-08-23T04:54:04.371Z,63.59
2018-08-23T04:55:04.253Z,63.74
2018-08-23T04:56:04.150Z,63.61
2018-08-23T04:57:04.247Z,63.63
2018-08-23T04:58:04.219Z,63.62
2018-08-23T04:59:04.399Z,63.65
2018-08-23T05:00:04.431Z,63.64
2018-08-23T05:01:04.400Z,63.61
2018-08-23T05:02:04.356Z,63.68
2018-08-23T05:03:04.384Z,63.68
2018-08-23T05:04:04.526Z,63.62
2018-08-23T05:05:04.366Z,63.66
2018-08-23T05:06:04.364Z,63.64
2018-08-23T05:07:04.222Z,63.67
2018-08-23T05:08:04.197Z,63.56
2018-08-23T05:09:04.262Z,63.6
2018-08-23T05:10:04.403Z,63.63
2018-08-23T05:11:04.147Z,63.67
2018-08-23T05:12:04.542Z,63.67
2018-08-23T05:13:04.315Z,63.7
2018-08-23T05:14:04.488Z,63.69
2018-08-23T05:15:04.347Z,63.58
2018-08-23T05:16:04.455Z,63.73
2018-08-23T05:17:04.332Z,63.67
2018-08-23T05:18:04.297Z,63.62
2018-08-23T05:19:04.355Z,63.6
2018-08-23T05:20:04.357Z,63.61
2018-08-23T05:21:04.426Z,63.56
2018-08-23T05:22:04.484Z,63.73
2018-08-23T05:23:04.328Z,63.64
2018-08-23T05:24:04.409Z,63.58
2018-08-23T05:25:04.263Z,63.65
2018-08-23T05:26:04.214Z,63.67
2018-08-23T05:27:04.459Z,63.66
2018-08-23T05:28:04.489Z,63.55
2018-08-23T05:29:04.357Z,63.61
2018-08-23T05:30:04.300Z,63.61
2018-08-23T05:31:04.484Z,63.6
2018-08-23T05:32:04.297Z,63.61
2018-08-23T05:33:04.336Z,63.62
2018-08-23T05:34:04.427Z,63.69
2018-08-23T05:35:04.449Z,63.58
2018-08-23T05:36:04.687Z,63.65
2018-08-23T05:37:04.288Z,63.69
2018-08-23T05:38:04.424Z,63.61
2018-08-23T05:39:04.380Z,63.64
2018-08-23T05:40:04.326Z,63.6
2018-08-23T05:41:04.522Z,63.62
2018-08-23T05:42:04.317Z,63.7
2018-08-23T05:43:04.393Z,63.6
2018-08-23T05:44:04.187Z,63.71
2018-08-23T05:45:04.346Z,63.68
2018-08-23T05:46:04.452Z,63.6
2018-08-23T05:47:04.395Z,63.59
2018-08-23T05:48:04.080Z,63.67
2018-08-23T05:49:04.238Z,63.62
2018-08-23T05:50:04.306Z,63.62
2018-08-23T05:51:04.315Z,63.59
2018-08-23T05:52:04.342Z,63.54
2018-08-23T05:53:04.391Z,63.61
2018-08-23T05:54:04.382Z,63.63
2018-08-23T05:55:04.501Z,63.61
2018-08-23T05:56:04.137Z,63.69
2018-08-23T05:57:04.328Z,63.69
2018-08-23T05:58:04.331Z,63.62
2018-08-23T05:59:04.470Z,63.65
2018-08-23T06:00:04.246Z,63.66
2018-08-23T06:01:04.374Z,63.57
2018-08-23T06:02:04.349Z,63.58
2018-08-23T06:03:04.433Z,63.59
2018-08-23T06:04:04.312Z,63.6
2018-08-23T06:05:04.315Z,63.59
2018-08-23T06:06:04.374Z,63.66
2018-08-23T06:07:04.441Z,63.52
2018-08-23T06:08:04.445Z,63.64
2018-08-23T06:09:04.466Z,63.64
2018-08-23T06:10:04.188Z,63.73
2018-08-23T06:11:04.287Z,63.63
2018-08-23T06:12:04.315Z,63.61
2018-08-23T06:13:04.325Z,63.63
2018-08-23T06:14:04.377Z,63.63
2018-08-23T06:15:04.237Z,63.61
2018-08-23T06:16:04.269Z,63.66
2018-08-23T06:17:04.505Z,63.65
2018-08-23T06:18:04.274Z,63.63
2018-08-23T06:19:04.266Z,63.57
2018-08-23T06:20:04.727Z,63.59
2018-08-23T06:21:04.133Z,63.59
2018-08-23T06:22:04.958Z,63.72
2018-08-23T06:23:04.374Z,63.69
2018-08-23T06:24:04.868Z,63.71
2018-08-23T06:25:04.865Z,63.73
2018-08-23T06:26:04.374Z,63.57
2018-08-23T06:27:04.501Z,63.67
2018-08-23T06:28:04.391Z,63.69
2018-08-23T06:29:04.296Z,63.68
2018-08-23T06:30:04.329Z,63.72
2018-08-23T06:31:04.396Z,63.62
2018-08-23T06:32:04.251Z,63.7
2018-08-23T06:33:04.869Z,63.72
2018-08-23T06:34:04.426Z,63.66
2018-08-23T06:35:04.373Z,63.7
2018-08-23T06:36:04.293Z,63.7
2018-08-23T06:37:04.708Z,63.6
2018-08-23T06:38:04.384Z,63.67
2018-08-23T06:39:04.711Z,63.64
2018-08-23T06:40:04.246Z,63.7
2018-08-23T06:41:04.412Z,63.67
2018-08-23T06:42:04.647Z,63.64
2018-08-23T06:43:04.237Z,63.66
2018-08-23T06:44:04.339Z,63.71
2018-08-23T06:45:04.376Z,63.62
2018-08-23T06:46:04.427Z,63.6
2018-08-23T06:47:06.306Z,63.65
2018-08-23T06:48:05.521Z,63.62
2018-08-23T06:49:04.413Z,63.65
2018-08-23T06:50:04.396Z,63.64
2018-08-23T06:51:04.348Z,63.69
2018-08-23T06:52:04.403Z,63.63
2018-08-23T06:53:04.375Z,63.59
2018-08-23T06:54:04.259Z,63.68
2018-08-23T06:55:04.213Z,63.66
2018-08-23T06:56:04.239Z,63.59
2018-08-23T06:57:04.158Z,63.65
2018-08-23T06:58:04.279Z,63.59
2018-08-23T06:59:04.506Z,63.61
2018-08-23T07:00:04.417Z,63.74
2018-08-23T07:01:04.317Z,63.66
2018-08-23T07:02:04.359Z,63.56
2018-08-23T07:03:04.276Z,63.61
2018-08-23T07:04:04.365Z,63.64
2018-08-23T07:05:04.458Z,63.58
2018-08-23T07:06:04.213Z,63.6
2018-08-23T07:07:04.293Z,63.68
2018-08-23T07:08:04.254Z,63.59
2018-08-23T07:09:04.309Z,63.6
2018-08-23T07:10:04.288Z,63.59
2018-08-23T07:11:04.432Z,63.57
2018-08-23T07:12:04.761Z,63.59
2018-08-23T07:13:04.322Z,63.55
2018-08-23T07:14:04.272Z,63.54
2018-08-23T07:15:04.775Z,63.52
2018-08-23T07:16:04.775Z,63.61
2018-08-23T07:17:04.750Z,63.59
2018-08-23T07:18:04.906Z,63.6
2018-08-23T07:19:04.272Z,63.62
2018-08-23T07:20:04.209Z,63.53
2018-08-23T07:21:04.417Z,63.52
2018-08-23T07:22:04.585Z,63.54
2018-08-23T07:23:04.677Z,63.65
2018-08-23T07:24:04.279Z,63.57
2018-08-23T07:25:04.458Z,63.55
2018-08-23T07:26:04.562Z,63.72
2018-08-23T07:27:04.236Z,63.59
2018-08-23T07:28:04.270Z,63.6
2018-08-23T07:29:04.506Z,63.48
2018-08-23T07:30:04.523Z,63.46
2018-08-23T07:31:07.628Z,63.53
2018-08-23T07:32:04.126Z,63.57
2018-08-23T07:33:04.629Z,63.55
2018-08-23T07:34:04.431Z,63.6
2018-08-23T07:35:04.565Z,63.64
2018-08-23T07:36:04.264Z,63.54
2018-08-23T07:37:04.229Z,63.59
2018-08-23T07:38:04.898Z,63.56
2018-08-23T07:39:04.440Z,63.58
2018-08-23T07:40:04.569Z,63.65
2018-08-23T07:41:04.255Z,63.52
2018-08-23T07:42:04.674Z,63.53
2018-08-23T07:43:04.444Z,63.53
2018-08-23T07:44:04.314Z,63.59
2018-08-23T07:45:04.414Z,63.53
2018-08-23T07:46:04.456Z,63.48
2018-08-23T07:47:04.346Z,63.62
2018-08-23T07:48:04.547Z,63.55
2018-08-23T07:49:05.118Z,63.58
2018-08-23T07:50:04.388Z,63.57
2018-08-23T07:51:04.295Z,63.61
2018-08-23T07:52:04.313Z,63.55
2018-08-23T07:53:04.929Z,63.57
2018-08-23T07:54:04.182Z,63.62
2018-08-23T07:55:04.620Z,63.64
2018-08-23T07:56:04.366Z,63.59
2018-08-23T07:57:04.303Z,63.55
2018-08-23T07:58:04.523Z,63.62
2018-08-23T07:59:04.263Z,63.61
2018-08-23T08:00:04.349Z,63.59
2018-08-23T08:01:04.885Z,63.53
2018-08-23T08:02:04.471Z,63.55
2018-08-23T08:03:04.243Z,63.55
2018-08-23T08:04:04.244Z,63.51
2018-08-23T08:05:04.365Z,63.6
2018-08-23T08:06:04.333Z,63.57
2018-08-23T08:07:04.105Z,63.57
2018-08-23T08:08:04.383Z,63.58
2018-08-23T08:09:04.461Z,63.57
2018-08-23T08:10:04.231Z,63.62
2018-08-23T08:11:04.212Z,63.61
2018-08-23T08:12:04.218Z,63.61
2018-08-23T08:13:04.205Z,63.54
2018-08-23T08:14:04.360Z,63.6
2018-08-23T08:15:04.383Z,63.55
2018-08-23T08:16:04.398Z,63.67
2018-08-23T08:17:04.532Z,63.6
2018-08-23T08:18:04.221Z,63.66
2018-08-23T08:19:04.317Z,63.51
2018-08-23T08:20:04.321Z,63.6
2018-08-23T08:21:04.356Z,63.53
2018-08-23T08:22:04.594Z,63.59
2018-08-23T08:23:04.245Z,63.54
2018-08-23T08:24:04.673Z,63.57
2018-08-23T08:25:04.232Z,63.61
2018-08-23T08:26:04.343Z,63.6
2018-08-23T08:27:04.534Z,63.64
2018-08-23T08:28:04.373Z,63.58
2018-08-23T08:29:04.417Z,63.58
2018-08-23T08:30:04.305Z,63.57
2018-08-23T08:31:04.463Z,63.55
2018-08-23T08:32:04.468Z,63.61
2018-08-23T08:33:04.486Z,63.59
2018-08-23T08:34:04.200Z,63.61
2018-08-23T08:35:04.230Z,63.53
2018-08-23T08:36:04.242Z,63.54
2018-08-23T08:37:04.107Z,63.54
2018-08-23T08:38:04.560Z,63.59
2018-08-23T08:39:04.316Z,63.54
2018-08-23T08:40:04.216Z,63.66
2018-08-23T08:41:04.444Z,63.57
2018-08-23T08:42:04.294Z,63.66
2018-08-23T08:43:04.443Z,63.57
2018-08-23T08:44:04.346Z,63.6
2018-08-23T08:45:04.584Z,63.53
2018-08-23T08:46:04.407Z,63.58
2018-08-23T08:47:04.433Z,63.54
2018-08-23T08:48:04.327Z,63.64
2018-08-23T08:49:04.314Z,63.55
2018-08-23T08:50:04.489Z,63.54
2018-08-23T08:51:04.456Z,63.52
2018-08-23T08:52:04.364Z,63.52
2018-08-23T08:53:04.398Z,63.53
2018-08-23T08:54:04.283Z,63.48
2018-08-23T08:55:04.504Z,63.55
2018-08-23T08:56:04.259Z,63.56
2018-08-23T08:57:04.323Z,63.67
2018-08-23T08:58:04.447Z,63.63
2018-08-23T08:59:04.567Z,63.65
2018-08-23T09:00:04.491Z,63.66
2018-08-23T09:01:04.301Z,63.65
2018-08-23T09:02:04.282Z,63.63
2018-08-23T09:03:04.420Z,63.6
2018-08-23T09:04:04.379Z,63.52
2018-08-23T09:05:04.444Z,63.53
2018-08-23T09:06:04.398Z,63.58
2018-08-23T09:07:04.410Z,63.67
2018-08-23T09:08:04.196Z,63.58
2018-08-23T09:09:04.217Z,63.53
2018-08-23T09:10:04.051Z,63.62
2018-08-23T09:11:04.369Z,63.62
2018-08-23T09:12:04.221Z,63.66
2018-08-23T09:13:04.257Z,63.55
2018-08-23T09:14:04.231Z,63.61
2018-08-23T09:15:04.214Z,63.61
2018-08-23T09:16:04.382Z,63.47
2018-08-23T09:17:04.336Z,63.59
2018-08-23T09:18:04.447Z,63.74
2018-08-23T09:19:04.358Z,63.55
2018-08-23T09:20:04.504Z,63.51
2018-08-23T09:21:04.392Z,63.52
2018-08-23T09:22:04.409Z,63.52
2018-08-23T09:23:04.325Z,63.55
2018-08-23T09:24:04.299Z,63.59
2018-08-23T09:25:04.174Z,63.62
2018-08-23T09:26:04.368Z,63.59
2018-08-23T09:27:04.365Z,63.57
2018-08-23T09:28:04.261Z,63.67
2018-08-23T09:29:04.254Z,63.64
2018-08-23T09:30:04.379Z,63.61
2018-08-23T09:31:04.729Z,63.53
2018-08-23T09:32:04.561Z,63.51
2018-08-23T09:33:04.421Z,63.47
2018-08-23T09:34:04.319Z,63.62
2018-08-23T09:35:04.799Z,63.52
2018-08-23T09:36:04.528Z,63.53
2018-08-23T09:37:04.401Z,63.61
2018-08-23T09:38:04.299Z,63.61
2018-08-23T09:39:04.317Z,63.61
2018-08-23T09:40:04.336Z,63.58
2018-08-23T09:41:04.308Z,63.53
2018-08-23T09:42:04.112Z,63.48
2018-08-23T09:43:04.251Z,63.6
2018-08-23T09:44:04.346Z,63.56
2018-08-23T09:45:04.276Z,63.56
2018-08-23T09:46:04.321Z,63.61
2018-08-23T09:47:04.208Z,63.59
2018-08-23T09:48:04.329Z,63.49
2018-08-23T09:49:04.503Z,63.59
2018-08-23T09:50:04.379Z,63.56
2018-08-23T09:51:04.517Z,63.57
2018-08-23T09:52:04.247Z,63.59
2018-08-23T09:53:04.504Z,63.51
2018-08-23T09:54:04.157Z,63.54
2018-08-23T09:55:04.246Z,63.54
2018-08-23T09:56:04.096Z,63.61
2018-08-23T09:57:04.273Z,63.67
2018-08-23T09:58:04.344Z,63.55
2018-08-23T09:59:04.312Z,63.58
2018-08-23T10:00:04.336Z,63.55
2018-08-23T10:01:04.835Z,63.52
2018-08-23T10:02:04.531Z,63.59
2018-08-23T10:03:04.361Z,63.54
2018-08-23T10:04:04.331Z,63.57
2018-08-23T10:05:04.351Z,63.46
2018-08-23T10:06:04.450Z,63.57
2018-08-23T10:07:04.222Z,63.53
2018-08-23T10:08:04.219Z,63.55
2018-08-23T10:09:04.145Z,63.66
2018-08-23T10:10:04.297Z,63.58
2018-08-23T10:11:04.331Z,63.51
2018-08-23T10:12:04.333Z,63.64
2018-08-23T10:13:04.310Z,63.55
2018-08-23T10:14:04.159Z,63.55
2018-08-23T10:15:04.388Z,63.53
2018-08-23T10:16:04.117Z,63.59
2018-08-23T10:17:04.235Z,63.53
2018-08-23T10:18:04.173Z,63.53
2018-08-23T10:19:04.327Z,63.62
2018-08-23T10:20:04.140Z,63.49
2018-08-23T10:21:04.437Z,63.69
2018-08-23T10:22:04.205Z,63.65
2018-08-23T10:23:04.188Z,63.63
2018-08-23T10:24:04.389Z,63.62
2018-08-23T10:25:04.278Z,63.57
2018-08-23T10:26:04.656Z,63.57
2018-08-23T10:27:04.156Z,63.58
2018-08-23T10:28:04.262Z,63.59
2018-08-23T10:29:04.264Z,63.59
2018-08-23T10:30:04.281Z,63.58
2018-08-23T10:31:04.417Z,63.68
2018-08-23T10:32:04.401Z,63.69
2018-08-23T10:33:04.379Z,63.78
2018-08-23T10:34:04.299Z,63.69
2018-08-23T10:35:04.308Z,63.69
2018-08-23T10:36:04.262Z,63.75
2018-08-23T10:37:04.239Z,63.68
2018-08-23T10:38:04.189Z,63.63
2018-08-23T10:39:04.229Z,63.79
2018-08-23T10:40:04.236Z,63.66
2018-08-23T10:41:04.126Z,63.67
2018-08-23T10:42:04.254Z,63.8
2018-08-23T10:43:04.455Z,63.66
2018-08-23T10:44:04.278Z,63.68
2018-08-23T10:45:04.312Z,63.71
2018-08-23T10:46:04.238Z,63.77
2018-08-23T10:47:04.131Z,63.8
2018-08-23T10:48:04.477Z,63.81
2018-08-23T10:49:04.123Z,63.72
2018-08-23T10:50:04.398Z,63.71
2018-08-23T10:51:04.893Z,63.78
2018-08-23T10:52:04.284Z,63.71
2018-08-23T10:53:04.215Z,63.77
2018-08-23T10:54:04.404Z,63.77
2018-08-23T10:55:04.301Z,63.72
2018-08-23T10:56:04.343Z,63.82
2018-08-23T10:57:04.539Z,63.89
2018-08-23T10:58:04.090Z,63.76
2018-08-23T10:59:04.462Z,63.85
2018-08-23T11:00:04.161Z,63.8
2018-08-23T11:01:04.206Z,63.87
2018-08-23T11:02:04.236Z,63.7
2018-08-23T11:03:04.390Z,63.89
2018-08-23T11:04:04.366Z,63.88
2018-08-23T11:05:04.184Z,63.79
2018-08-23T11:06:04.265Z,63.83
2018-08-23T11:07:04.172Z,63.96
2018-08-23T11:08:04.592Z,63.81
2018-08-23T11:09:04.104Z,63.7
2018-08-23T11:10:04.438Z,63.73
2018-08-23T11:11:04.067Z,63.64
2018-08-23T11:12:04.103Z,63.66
2018-08-23T11:13:04.590Z,63.8
2018-08-23T11:14:04.194Z,63.79
2018-08-23T11:15:04.175Z,63.77
2018-08-23T11:16:04.233Z,63.71
2018-08-23T11:17:04.720Z,63.65
2018-08-23T11:18:04.446Z,63.74
2018-08-23T11:19:04.226Z,63.65
2018-08-23T11:20:04.049Z,63.74
2018-08-23T11:21:04.408Z,63.58
2018-08-23T11:22:04.179Z,63.64
2018-08-23T11:23:04.819Z,63.7
2018-08-23T11:24:04.830Z,63.75
2018-08-23T11:25:04.245Z,63.69
2018-08-23T11:26:04.362Z,63.71
2018-08-23T11:27:04.284Z,63.61
2018-08-23T11:28:04.380Z,63.67
2018-08-23T11:29:04.250Z,63.74
2018-08-23T11:30:04.536Z,63.69
2018-08-23T11:31:04.287Z,63.69
2018-08-23T11:32:04.486Z,63.66
2018-08-23T11:33:04.161Z,63.67
2018-08-23T11:34:04.153Z,63.73
2018-08-23T11:35:04.354Z,63.74
2018-08-23T11:36:04.610Z,63.68
2018-08-23T11:37:04.267Z,63.64
2018-08-23T11:38:04.169Z,63.69
2018-08-23T11:39:04.088Z,63.7
2018-08-23T11:40:04.184Z,63.68
2018-08-23T11:41:04.271Z,63.61
2018-08-23T11:42:04.172Z,63.75
2018-08-23T11:43:04.309Z,63.51
2018-08-23T11:44:04.189Z,63.62
2018-08-23T11:45:04.176Z,63.58
2018-08-23T11:46:04.140Z,63.57
2018-08-23T11:47:04.316Z,63.59
2018-08-23T11:48:04.297Z,63.62
2018-08-23T11:49:04.246Z,63.46
2018-08-23T11:50:04.386Z,63.64
2018-08-23T11:51:04.384Z,63.57
2018-08-23T11:52:04.262Z,63.63
2018-08-23T11:53:04.446Z,63.58
2018-08-23T11:54:04.161Z,63.56
2018-08-23T11:55:04.056Z,63.57
2018-08-23T11:56:04.331Z,63.63
2018-08-23T11:57:04.191Z,63.63
2018-08-23T11:58:04.493Z,63.57
2018-08-23T11:59:04.795Z,63.6
2018-08-23T12:00:04.275Z,63.67
2018-08-23T12:01:04.209Z,63.73
2018-08-23T12:02:04.331Z,63.6
2018-08-23T12:03:04.470Z,63.71
2018-08-23T12:04:04.508Z,63.64
2018-08-23T12:05:04.382Z,63.47
2018-08-23T12:06:04.199Z,63.65
2018-08-23T12:07:04.268Z,63.8
2018-08-23T12:08:04.358Z,64.01
2018-08-23T12:09:04.324Z,63.76
2018-08-23T12:10:04.413Z,63.82
2018-08-23T12:11:04.215Z,63.85
2018-08-23T12:12:04.191Z,63.72
2018-08-23T12:13:04.150Z,63.69
2018-08-23T12:14:04.205Z,63.67
2018-08-23T12:15:04.407Z,63.68
2018-08-23T12:16:04.240Z,63.7
2018-08-23T12:17:04.224Z,63.72
2018-08-23T12:18:04.837Z,63.83
2018-08-23T12:19:04.530Z,63.98
2018-08-23T12:20:04.172Z,63.88
2018-08-23T12:21:04.130Z,63.99
2018-08-23T12:22:04.684Z,63.84
2018-08-23T12:23:04.289Z,63.87
2018-08-23T12:24:04.093Z,63.79
2018-08-23T12:25:04.210Z,63.89
2018-08-23T12:26:04.399Z,63.86
2018-08-23T12:27:04.459Z,63.89
2018-08-23T12:28:04.113Z,63.8
2018-08-23T12:29:04.193Z,63.9
2018-08-23T12:30:05.350Z,63.93
2018-08-23T12:31:04.152Z,64
2018-08-23T12:32:04.544Z,63.86
2018-08-23T12:33:06.654Z,63.81
2018-08-23T12:34:04.420Z,63.81
2018-08-23T12:35:04.780Z,63.73
2018-08-23T12:36:04.645Z,63.75
2018-08-23T12:37:04.191Z,63.81
2018-08-23T12:38:04.275Z,63.7
2018-08-23T12:39:04.311Z,63.74
2018-08-23T12:40:04.412Z,63.72
2018-08-23T12:41:04.698Z,63.71
2018-08-23T12:42:04.280Z,63.76
2018-08-23T12:43:04.302Z,63.67
2018-08-23T12:44:04.215Z,63.62
2018-08-23T12:45:04.292Z,63.75
2018-08-23T12:46:04.125Z,63.64
2018-08-23T12:47:04.162Z,63.63
2018-08-23T12:48:04.262Z,63.66
2018-08-23T12:49:04.319Z,63.78
2018-08-23T12:50:04.125Z,63.71
2018-08-23T12:51:04.091Z,63.87
2018-08-23T12:52:04.149Z,63.72
2018-08-23T12:53:04.071Z,63.72
2018-08-23T12:54:04.279Z,63.68
2018-08-23T12:55:04.176Z,63.79